Snoqualmie River: South Fork station

back to: Snoqualmie river
South Fork station Summary - (NOAA Hydrograph: GARW1)
Latest reading:
Thu12/12 07:15 am 10.8 ft 204 cfs (+8/hr)
Past 24hr max:
Thu12/12 02:45 am 10.81 ft 207 cfs
Forecasted crests: (published Thu 12/12/19 05:47 am)
Thu12/12 10:00 pm 11.04 ft 275 cfs
Thu12/19 10:00 am 10.45 ft 118 cfs

South Fork station Details

Latest Readings

Last 100 Readings:
Thu12/12 07:15 am 10.8 ft 204 cfs
Thu12/12 07:00 am 10.79 ft 202 cfs
Thu12/12 06:45 am 10.8 ft 204 cfs
Thu12/12 06:30 am 10.79 ft 202 cfs
Thu12/12 06:15 am 10.8 ft 204 cfs
Thu12/12 06:00 am 10.8 ft 204 cfs
Thu12/12 05:45 am 10.79 ft 202 cfs
Thu12/12 05:30 am 10.79 ft 202 cfs
Thu12/12 05:15 am 10.79 ft 202 cfs
Thu12/12 05:00 am 10.79 ft 202 cfs
Thu12/12 04:45 am 10.8 ft 204 cfs
Thu12/12 04:30 am 10.79 ft 202 cfs
Thu12/12 04:15 am 10.8 ft 204 cfs
Thu12/12 04:00 am 10.79 ft 202 cfs
Thu12/12 03:45 am 10.79 ft 202 cfs
Thu12/12 03:30 am 10.79 ft 202 cfs
Thu12/12 03:15 am 10.8 ft 204 cfs
Thu12/12 03:00 am 10.8 ft 204 cfs
Thu12/12 02:45 am 10.81 ft 207 cfs
Thu12/12 02:30 am 10.8 ft 204 cfs
Thu12/12 02:15 am 10.8 ft 204 cfs
Thu12/12 02:00 am 10.8 ft 204 cfs
Thu12/12 01:45 am 10.8 ft 204 cfs
Thu12/12 01:30 am 10.77 ft 196 cfs
Thu12/12 01:15 am 10.79 ft 202 cfs
Thu12/12 01:00 am 10.79 ft 202 cfs
Thu12/12 12:45 am 10.79 ft 202 cfs
Thu12/12 12:30 am 10.78 ft 199 cfs
Thu12/12 12:15 am 10.78 ft 199 cfs
Thu12/12 12:00 am 10.78 ft 199 cfs
Wed12/11 11:45 pm 10.77 ft 196 cfs
Wed12/11 11:30 pm 10.76 ft 193 cfs
Wed12/11 11:15 pm 10.75 ft 191 cfs
Wed12/11 11:00 pm 10.76 ft 193 cfs
Wed12/11 10:45 pm 10.76 ft 193 cfs
Wed12/11 10:30 pm 10.75 ft 191 cfs
Wed12/11 10:15 pm 10.75 ft 191 cfs
Wed12/11 10:00 pm 10.75 ft 191 cfs
Wed12/11 09:45 pm 10.75 ft 191 cfs
Wed12/11 09:30 pm 10.74 ft 188 cfs
Wed12/11 09:15 pm 10.74 ft 188 cfs
Wed12/11 09:00 pm 10.74 ft 188 cfs
Wed12/11 08:45 pm 10.73 ft 185 cfs
Wed12/11 08:30 pm 10.73 ft 185 cfs
Wed12/11 08:15 pm 10.73 ft 185 cfs
Wed12/11 08:00 pm 10.73 ft 185 cfs
Wed12/11 07:45 pm 10.73 ft 185 cfs
Wed12/11 07:30 pm 10.72 ft 183 cfs
Wed12/11 07:15 pm 10.72 ft 183 cfs
Wed12/11 07:00 pm 10.72 ft 183 cfs
Wed12/11 06:45 pm 10.73 ft 185 cfs
Wed12/11 06:30 pm 10.73 ft 185 cfs
Wed12/11 06:15 pm 10.73 ft 185 cfs
Wed12/11 06:00 pm 10.72 ft 183 cfs
Wed12/11 05:45 pm 10.72 ft 183 cfs
Wed12/11 05:30 pm 10.72 ft 183 cfs
Wed12/11 05:15 pm 10.73 ft 185 cfs
Wed12/11 05:00 pm 10.73 ft 185 cfs
Wed12/11 04:45 pm 10.73 ft 185 cfs
Wed12/11 04:30 pm 10.72 ft 183 cfs
Wed12/11 04:15 pm 10.73 ft 185 cfs
Wed12/11 04:00 pm 10.72 ft 183 cfs
Wed12/11 03:45 pm 10.73 ft 185 cfs
Wed12/11 03:30 pm 10.72 ft 183 cfs
Wed12/11 03:15 pm 10.72 ft 183 cfs
Wed12/11 03:00 pm 10.73 ft 185 cfs
Wed12/11 02:45 pm 10.73 ft 185 cfs
Wed12/11 02:30 pm 10.72 ft 183 cfs
Wed12/11 02:15 pm 10.72 ft 183 cfs
Wed12/11 02:00 pm 10.72 ft 183 cfs
Wed12/11 01:45 pm 10.72 ft 183 cfs
Wed12/11 01:30 pm 10.72 ft 183 cfs
Wed12/11 01:15 pm 10.72 ft 183 cfs
Wed12/11 01:00 pm 10.72 ft 183 cfs
Wed12/11 12:45 pm 10.72 ft 183 cfs
Wed12/11 12:30 pm 10.72 ft 183 cfs
Wed12/11 12:15 pm 10.73 ft 185 cfs
Wed12/11 12:00 pm 10.73 ft 185 cfs
Wed12/11 11:45 am 10.73 ft 185 cfs
Wed12/11 11:30 am 10.73 ft 185 cfs
Wed12/11 11:15 am 10.73 ft 185 cfs
Wed12/11 11:00 am 10.73 ft 185 cfs
Wed12/11 10:45 am 10.73 ft 185 cfs
Wed12/11 10:30 am 10.73 ft 185 cfs
Wed12/11 10:15 am 10.72 ft 183 cfs
Wed12/11 10:00 am 10.73 ft 185 cfs
Wed12/11 09:45 am 10.73 ft 185 cfs
Wed12/11 09:30 am 10.73 ft 185 cfs
Wed12/11 09:15 am 10.74 ft 188 cfs
Wed12/11 09:00 am 10.73 ft 185 cfs
Wed12/11 08:45 am 10.74 ft 188 cfs
Wed12/11 08:30 am 10.73 ft 185 cfs
Wed12/11 08:15 am 10.73 ft 185 cfs
Wed12/11 08:00 am 10.74 ft 188 cfs
Wed12/11 07:45 am 10.74 ft 188 cfs
Wed12/11 07:30 am 10.74 ft 188 cfs
Wed12/11 07:15 am 10.74 ft 188 cfs
Wed12/11 07:00 am 10.73 ft 185 cfs
Wed12/11 06:45 am 10.74 ft 188 cfs
Wed12/11 06:30 am 10.74 ft 188 cfs

Latest Forecasts

Currently Forecasted Readings:
Thu12/12 10:00 am 10.88 ft 226 cfs
Thu12/12 04:00 pm 10.89 ft 230 cfs
Thu12/12 10:00 pm 11.04 ft 275 cfs
Fri12/13 04:00 am 11.01 ft 266 cfs
Fri12/13 10:00 am 10.89 ft 231 cfs
Fri12/13 04:00 pm 10.79 ft 203 cfs
Fri12/13 10:00 pm 10.68 ft 171 cfs
Sat12/14 04:00 am 10.61 ft 156 cfs
Sat12/14 10:00 am 10.57 ft 147 cfs
Sat12/14 04:00 pm 10.55 ft 142 cfs
Sat12/14 10:00 pm 10.54 ft 138 cfs
Sun12/15 04:00 am 10.53 ft 135 cfs
Sun12/15 10:00 am 10.52 ft 134 cfs
Sun12/15 04:00 pm 10.51 ft 131 cfs
Sun12/15 10:00 pm 10.5 ft 130 cfs
Mon12/16 04:00 am 10.49 ft 129 cfs
Mon12/16 10:00 am 10.49 ft 128 cfs
Mon12/16 04:00 pm 10.49 ft 128 cfs
Mon12/16 10:00 pm 10.49 ft 127 cfs
Tue12/17 04:00 am 10.49 ft 127 cfs
Tue12/17 10:00 am 10.48 ft 125 cfs
Tue12/17 04:00 pm 10.47 ft 123 cfs
Tue12/17 10:00 pm 10.46 ft 120 cfs
Wed12/18 04:00 am 10.45 ft 119 cfs
Wed12/18 10:00 am 10.44 ft 117 cfs
Wed12/18 04:00 pm 10.44 ft 117 cfs
Wed12/18 10:00 pm 10.43 ft 115 cfs
Thu12/19 04:00 am 10.43 ft 114 cfs
Thu12/19 10:00 am 10.45 ft 118 cfs
Thu12/19 04:00 pm 10.45 ft 118 cfs
Thu12/19 10:00 pm 10.45 ft 118 cfs
Fri12/20 04:00 am 10.48 ft 124 cfs
Fri12/20 10:00 am 10.49 ft 127 cfs
Fri12/20 04:00 pm 10.49 ft 128 cfs
Fri12/20 10:00 pm 10.52 ft 133 cfs
Sat12/21 04:00 am 10.65 ft 165 cfs

Snoqualmie River flood gauge data supplied by the
National Weather Service Northwest River Forecast Center.

Sign up for Floodzilla alerts.